createdAt,value
2019-05-01T00:00:16.014Z,5.33
2019-05-01T00:02:57.796Z,5.63
2019-05-01T00:05:35.255Z,7.17
2019-05-01T00:08:07.987Z,6.77
2019-05-01T00:10:38.679Z,6.07
2019-05-01T00:13:10.140Z,5.87
2019-05-01T00:15:41.469Z,6.57
2019-05-01T00:18:12.615Z,6.23
2019-05-01T00:20:43.067Z,6.80
2019-05-01T00:23:14.079Z,5.97
2019-05-01T00:25:45.251Z,5.97
2019-05-01T00:28:16.870Z,6.07
2019-05-01T00:30:48.142Z,6.10
2019-05-01T00:33:20.383Z,6.10
2019-05-01T00:35:51.682Z,6.07
2019-05-01T00:38:22.887Z,5.13
2019-05-01T00:40:54.154Z,5.87
2019-05-01T00:43:24.622Z,6.10
2019-05-01T00:45:55.538Z,5.70
2019-05-01T00:48:26.758Z,5.63
2019-05-01T00:50:58.327Z,5.77
2019-05-01T00:53:29.751Z,6.10
2019-05-01T00:56:18.275Z,5.77
2019-05-01T00:59:05.891Z,6.23
2019-05-01T01:01:54.495Z,6.20
2019-05-01T01:04:25.782Z,6.40
2019-05-01T01:06:56.795Z,6.50
2019-05-01T01:09:27.846Z,6.50
2019-05-01T01:11:58.927Z,6.10
2019-05-01T01:14:29.896Z,6.33
2019-05-01T01:17:00.908Z,6.30
2019-05-01T01:19:31.947Z,5.87
2019-05-01T01:22:02.987Z,6.27
2019-05-01T01:24:34.034Z,6.13
2019-05-01T01:27:05.009Z,6.10
2019-05-01T01:29:36.527Z,5.83
2019-05-01T01:32:07.599Z,5.47
2019-05-01T01:34:38.676Z,6.33
2019-05-01T01:37:09.647Z,5.73
2019-05-01T01:39:41.856Z,5.70
2019-05-01T01:42:13.027Z,6.33
2019-05-01T01:45:09.175Z,5.93
2019-05-01T01:47:59.219Z,5.77
2019-05-01T01:50:30.509Z,6.30
2019-05-01T01:53:01.660Z,6.20
2019-05-01T01:55:32.671Z,5.80
2019-05-01T01:58:04.159Z,6.70
2019-05-01T02:01:09.258Z,6.20
2019-05-01T02:03:35.535Z,6.17
2019-05-01T02:06:06.751Z,6.23
2019-05-01T02:08:38.087Z,5.80
2019-05-01T02:11:09.139Z,6.07
2019-05-01T02:13:40.315Z,6.30
2019-05-01T02:16:11.306Z,5.90
2019-05-01T02:18:42.350Z,6.13
2019-05-01T02:21:13.420Z,6.10
2019-05-01T02:23:44.388Z,6.20
2019-05-01T02:26:18.728Z,6.40
2019-05-01T02:28:55.473Z,6.47
2019-05-01T02:31:33.035Z,6.10
2019-05-01T02:34:04.603Z,6.33
2019-05-01T02:36:37.382Z,5.97
2019-05-01T02:39:10.638Z,6.57
2019-05-01T02:41:44.131Z,6.97
2019-05-01T02:44:22.501Z,6.50
2019-05-01T02:46:56.446Z,5.87
2019-05-01T02:49:36.055Z,6.07
2019-05-01T02:52:10.247Z,6.53
2019-05-01T02:54:44.435Z,6.47
2019-05-01T02:57:18.380Z,6.60
2019-05-01T02:59:52.504Z,6.73
2019-05-01T03:02:25.669Z,7.20
2019-05-01T03:04:58.197Z,6.07
2019-05-01T03:07:31.057Z,6.57
2019-05-01T03:10:03.595Z,7.00
2019-05-01T03:12:38.004Z,6.47
2019-05-01T03:15:09.985Z,6.40
2019-05-01T03:17:58.211Z,6.67
2019-05-01T03:20:56.685Z,6.50
2019-05-01T03:23:34.997Z,7.20
2019-05-01T03:26:06.508Z,6.73
2019-05-01T03:28:38.540Z,6.73
2019-05-01T03:31:11.750Z,6.90
2019-05-01T03:33:43.257Z,7.10
2019-05-01T03:36:14.576Z,6.63
2019-05-01T03:38:46.352Z,6.93
2019-05-01T03:41:19.308Z,8.17
2019-05-01T03:43:50.817Z,8.00
2019-05-01T03:46:32.536Z,7.90
2019-05-01T03:49:06.012Z,7.77
2019-05-01T03:51:37.551Z,7.53
2019-05-01T03:54:08.779Z,7.70
2019-05-01T03:56:39.896Z,7.03
2019-05-01T03:59:11.193Z,8.03
2019-05-01T04:02:02.125Z,7.37
2019-05-01T04:04:33.856Z,7.47
2019-05-01T04:07:05.108Z,7.40
2019-05-01T04:09:36.083Z,7.70
2019-05-01T04:12:07.184Z,7.60
2019-05-01T04:14:40.058Z,8.07
2019-05-01T04:17:17.040Z,7.63
2019-05-01T04:19:48.784Z,7.73
2019-05-01T04:22:20.055Z,7.20
2019-05-01T04:24:51.465Z,6.87
2019-05-01T04:27:27.660Z,7.43
2019-05-01T04:30:16.061Z,7.20
2019-05-01T04:32:52.851Z,6.93
2019-05-01T04:35:25.667Z,7.37
2019-05-01T04:37:58.420Z,7.20
2019-05-01T04:40:41.587Z,7.40
2019-05-01T04:43:12.781Z,7.67
2019-05-01T04:45:44.070Z,7.83
2019-05-01T04:48:15.752Z,7.60
2019-05-01T04:50:47.711Z,7.07
2019-05-01T04:53:19.895Z,7.20
2019-05-01T04:55:51.383Z,7.80
2019-05-01T04:58:22.462Z,7.50
2019-05-01T05:00:53.475Z,7.70
2019-05-01T05:03:26.611Z,7.17
2019-05-01T05:05:57.058Z,7.33
2019-05-01T05:08:27.957Z,7.20
2019-05-01T05:11:00.843Z,6.87
2019-05-01T05:13:41.307Z,6.97
2019-05-01T05:16:31.211Z,7.60
2019-05-01T05:19:01.620Z,6.83
2019-05-01T05:21:31.807Z,6.53
2019-05-01T05:24:02.659Z,6.50
2019-05-01T05:26:34.770Z,6.80
2019-05-01T05:29:06.546Z,6.33
2019-05-01T05:31:38.031Z,6.30
2019-05-01T05:34:10.151Z,6.50
2019-05-01T05:36:42.923Z,6.87
2019-05-01T05:39:30.983Z,6.03
2019-05-01T05:42:04.311Z,6.13
2019-05-01T05:44:36.039Z,6.03
2019-05-01T05:47:07.158Z,6.23
2019-05-01T05:49:38.447Z,6.03
2019-05-01T05:52:23.095Z,5.63
2019-05-01T05:55:20.751Z,6.17
2019-05-01T05:58:10.059Z,6.77
2019-05-01T06:01:04.487Z,5.80
2019-05-01T06:03:54.873Z,6.60
2019-05-01T06:06:51.008Z,5.60
2019-05-01T06:09:28.436Z,6.00
2019-05-01T06:12:21.290Z,5.50
2019-05-01T06:15:06.496Z,6.27
2019-05-01T06:18:04.212Z,6.07
2019-05-01T06:20:57.219Z,6.10
2019-05-01T06:23:37.363Z,6.23
2019-05-01T06:26:37.091Z,6.10
2019-05-01T06:29:05.059Z,5.73
2019-05-01T06:31:36.899Z,6.00
2019-05-01T06:34:07.979Z,6.53
2019-05-01T06:36:38.395Z,6.70
2019-05-01T06:39:11.949Z,6.80
2019-05-01T06:41:44.679Z,6.87
2019-05-01T06:44:39.161Z,6.30
2019-05-01T06:47:46.505Z,6.00
2019-05-01T06:50:37.136Z,5.50
2019-05-01T06:53:07.078Z,5.77
2019-05-01T06:55:37.792Z,5.60
2019-05-01T06:58:08.740Z,5.33
2019-05-01T07:00:43.183Z,5.90
2019-05-01T07:03:13.305Z,4.90
2019-05-01T07:05:49.134Z,5.25
2019-05-01T07:08:24.720Z,5.33
2019-05-01T07:10:51.425Z,5.60
2019-05-01T07:13:22.723Z,5.47
2019-05-01T07:16:03.201Z,5.53
2019-05-01T07:18:33.091Z,5.70
2019-05-01T07:21:04.310Z,4.62
2019-05-01T07:23:35.268Z,4.87
2019-05-01T07:26:10.025Z,4.62
2019-05-01T07:28:39.955Z,4.80
2019-05-01T07:31:15.479Z,5.42
2019-05-01T07:33:53.495Z,4.50
2019-05-01T07:36:25.831Z,4.25
2019-05-01T07:38:57.171Z,4.42
2019-05-01T07:41:28.511Z,4.40
2019-05-01T07:44:29.936Z,4.15
2019-05-01T07:47:38.570Z,4.42
2019-05-01T07:50:11.047Z,4.60
2019-05-01T07:52:42.998Z,3.80
2019-05-01T07:55:18.345Z,3.87
2019-05-01T07:57:49.051Z,4.50
2019-05-01T08:00:36.959Z,3.65
2019-05-01T08:03:07.146Z,3.90
2019-05-01T08:05:40.766Z,4.00
2019-05-01T08:08:10.910Z,4.53
2019-05-01T08:10:42.567Z,3.92
2019-05-01T08:13:14.180Z,4.00
2019-05-01T08:15:46.264Z,4.15
2019-05-01T08:18:36.241Z,3.90
2019-05-01T08:21:35.604Z,3.90
2019-05-01T08:24:08.717Z,3.77
2019-05-01T08:26:44.226Z,4.05
2019-05-01T08:29:36.906Z,3.80
2019-05-01T08:32:17.047Z,3.70
2019-05-01T08:34:49.454Z,3.25
2019-05-01T08:37:22.691Z,3.75
2019-05-01T08:39:54.339Z,3.52
2019-05-01T08:42:25.215Z,3.27
2019-05-01T08:45:14.176Z,3.30
2019-05-01T08:47:48.599Z,3.52
2019-05-01T08:50:24.796Z,4.03
2019-05-01T08:52:54.310Z,3.42
2019-05-01T08:55:25.872Z,2.55
2019-05-01T08:57:58.495Z,2.50
2019-05-01T09:00:31.062Z,2.65
2019-05-01T09:03:08.585Z,3.00
2019-05-01T09:05:36.518Z,3.40
2019-05-01T09:08:08.167Z,3.10
2019-05-01T09:10:39.703Z,3.17
2019-05-01T09:13:11.332Z,3.22
2019-05-01T09:15:43.720Z,3.17
2019-05-01T09:18:18.814Z,3.10
2019-05-01T09:20:51.435Z,3.22
2019-05-01T09:23:23.078Z,2.80
2019-05-01T09:26:25.824Z,2.83
2019-05-01T09:29:01.435Z,2.87
2019-05-01T09:31:35.599Z,2.80
2019-05-01T09:34:09.477Z,2.67
2019-05-01T09:36:40.503Z,2.97
2019-05-01T09:39:13.070Z,2.90
2019-05-01T09:41:47.451Z,3.13
2019-05-01T09:44:17.256Z,2.73
2019-05-01T09:46:48.643Z,2.87
2019-05-01T09:49:20.678Z,3.10
2019-05-01T09:52:09.563Z,3.00
2019-05-01T09:55:02.571Z,3.03
2019-05-01T09:57:36.543Z,3.00
2019-05-01T10:00:10.115Z,3.13
2019-05-01T10:02:42.257Z,2.90
2019-05-01T10:05:22.596Z,3.00
2019-05-01T10:07:48.379Z,3.23
2019-05-01T10:10:19.739Z,3.20
2019-05-01T10:12:51.032Z,3.07
2019-05-01T10:15:22.287Z,2.87
2019-05-01T10:17:54.643Z,3.10
2019-05-01T10:20:25.903Z,3.50
2019-05-01T10:22:57.163Z,3.43
2019-05-01T10:25:28.426Z,3.27
2019-05-01T10:28:07.321Z,3.03
2019-05-01T10:30:59.619Z,3.10
2019-05-01T10:33:38.670Z,3.00
2019-05-01T10:36:27.755Z,3.07
2019-05-01T10:38:59.079Z,3.30
2019-05-01T10:41:30.339Z,3.07
2019-05-01T10:44:01.671Z,2.67
2019-05-01T10:46:32.998Z,2.97
2019-05-01T10:49:04.451Z,3.17
2019-05-01T10:51:35.714Z,3.37
2019-05-01T10:54:07.021Z,3.40
2019-05-01T10:56:38.260Z,3.70
2019-05-01T10:59:09.584Z,4.10
2019-05-01T11:01:54.203Z,4.43
2019-05-01T11:04:26.089Z,4.30
2019-05-01T11:06:57.418Z,4.70
2019-05-01T11:09:28.994Z,4.30
2019-05-01T11:12:00.335Z,4.93
2019-05-01T11:14:31.687Z,4.20
2019-05-01T11:17:02.941Z,4.10
2019-05-01T11:19:34.299Z,4.37
2019-05-01T11:22:05.719Z,4.97
2019-05-01T11:24:37.090Z,4.87
2019-05-01T11:27:08.730Z,5.30
2019-05-01T11:29:40.353Z,5.25
2019-05-01T11:32:30.446Z,5.30
2019-05-01T11:35:33.283Z,5.60
2019-05-01T11:38:26.759Z,5.67
2019-05-01T11:41:02.544Z,5.28
2019-05-01T11:43:34.158Z,5.67
2019-05-01T11:46:05.040Z,5.65
2019-05-01T11:48:36.487Z,5.10
2019-05-01T11:51:08.031Z,5.45
2019-05-01T11:53:38.943Z,5.70
2019-05-01T11:56:10.303Z,5.50
2019-05-01T11:58:41.871Z,5.80
2019-05-01T12:01:15.012Z,6.83
2019-05-01T12:03:46.613Z,6.97
2019-05-01T12:06:22.958Z,7.17
2019-05-01T12:08:51.364Z,6.90
2019-05-01T12:11:23.959Z,6.47
2019-05-01T12:13:54.951Z,5.87
2019-05-01T12:16:44.872Z,5.72
2019-05-01T12:19:17.249Z,6.90
2019-05-01T12:21:52.998Z,6.80
2019-05-01T12:24:24.082Z,7.22
2019-05-01T12:26:55.098Z,7.33
2019-05-01T12:29:27.078Z,7.25
2019-05-01T12:31:58.127Z,6.70
2019-05-01T12:34:29.121Z,6.57
2019-05-01T12:37:17.955Z,6.37
2019-05-01T12:39:49.555Z,6.97
2019-05-01T12:42:23.770Z,7.12
2019-05-01T12:44:53.954Z,7.00
2019-05-01T12:47:38.198Z,7.05
2019-05-01T12:50:09.975Z,7.63
2019-05-01T12:53:04.045Z,7.23
2019-05-01T12:55:49.527Z,7.00
2019-05-01T12:58:21.199Z,7.12
2019-05-01T13:00:53.563Z,7.37
2019-05-01T13:03:25.163Z,7.30
2019-05-01T13:05:56.723Z,6.97
2019-05-01T13:08:28.311Z,7.15
2019-05-01T13:11:01.007Z,6.80
2019-05-01T13:13:31.391Z,7.17
2019-05-01T13:16:02.296Z,6.92
2019-05-01T13:18:33.445Z,7.08
2019-05-01T13:21:04.486Z,7.55
2019-05-01T13:23:35.419Z,7.25
2019-05-01T13:26:30.983Z,7.90
2019-05-01T13:29:11.374Z,7.60
2019-05-01T13:31:50.419Z,7.62
2019-05-01T13:34:22.016Z,7.58
2019-05-01T13:37:02.892Z,7.85
2019-05-01T13:39:26.885Z,7.33
2019-05-01T13:42:00.031Z,6.65
2019-05-01T13:44:31.694Z,7.17
2019-05-01T13:47:03.255Z,6.35
2019-05-01T13:49:34.815Z,6.03
2019-05-01T13:52:06.467Z,6.47
2019-05-01T13:54:38.088Z,6.87
2019-05-01T13:57:09.067Z,8.48
2019-05-01T13:59:40.508Z,8.90
2019-05-01T14:02:12.482Z,9.35
2019-05-01T14:04:44.544Z,9.55
2019-05-01T14:07:17.022Z,9.18
2019-05-01T14:09:48.839Z,9.45
2019-05-01T14:12:21.478Z,9.20
2019-05-01T14:14:52.375Z,9.78
2019-05-01T14:17:23.783Z,10.18
2019-05-01T14:20:04.476Z,11.20
2019-05-01T14:23:03.891Z,11.28
2019-05-01T14:25:52.579Z,12.50
2019-05-01T14:28:23.975Z,12.35
2019-05-01T14:30:55.556Z,12.63
2019-05-01T14:33:27.136Z,13.22
2019-05-01T14:35:59.110Z,13.65
2019-05-01T14:38:30.675Z,13.83
2019-05-01T14:41:01.663Z,15.75
2019-05-01T14:43:33.247Z,16.90
2019-05-01T14:46:04.180Z,19.42
2019-05-01T14:48:35.859Z,21.02
2019-05-01T14:51:06.871Z,20.88
2019-05-01T14:53:37.864Z,22.80
2019-05-01T14:56:08.898Z,21.20
2019-05-01T14:58:40.979Z,21.27
2019-05-01T15:01:11.995Z,22.25
2019-05-01T15:03:43.004Z,21.37
2019-05-01T15:06:14.620Z,22.73
2019-05-01T15:08:46.679Z,22.98
2019-05-01T15:11:19.671Z,22.13
2019-05-01T15:14:03.191Z,22.15
2019-05-01T15:16:39.199Z,21.23
2019-05-01T15:19:15.687Z,18.75
2019-05-01T15:21:52.107Z,20.20
2019-05-01T15:24:24.038Z,20.10
2019-05-01T15:26:55.039Z,20.25
2019-05-01T15:29:26.035Z,21.17
2019-05-01T15:31:58.973Z,21.15
2019-05-01T15:34:30.207Z,21.93
2019-05-01T15:37:01.202Z,22.00
2019-05-01T15:39:37.154Z,22.70
2019-05-01T15:42:18.770Z,21.68
2019-05-01T15:44:49.827Z,20.62
2019-05-01T15:47:20.991Z,21.00
2019-05-01T15:49:52.239Z,21.35
2019-05-01T15:52:23.843Z,22.67
2019-05-01T15:54:54.922Z,21.50
2019-05-01T15:57:26.290Z,19.90
2019-05-01T15:59:57.327Z,17.65
2019-05-01T16:02:28.323Z,17.07
2019-05-01T16:04:59.423Z,17.12
2019-05-01T16:07:30.439Z,18.32
2019-05-01T16:10:01.447Z,18.45
2019-05-01T16:12:38.457Z,16.42
2019-05-01T16:15:16.759Z,17.27
2019-05-01T16:17:47.859Z,18.82
2019-05-01T16:20:18.866Z,18.62
2019-05-01T16:22:49.289Z,18.80
2019-05-01T16:25:22.340Z,18.57
2019-05-01T16:27:53.928Z,19.52
2019-05-01T16:30:26.658Z,20.27
2019-05-01T16:32:57.663Z,21.57
2019-05-01T16:35:28.668Z,21.60
2019-05-01T16:38:01.810Z,22.17
2019-05-01T16:41:00.194Z,20.92
2019-05-01T16:43:31.227Z,19.55
2019-05-01T16:46:02.303Z,21.35
2019-05-01T16:48:33.984Z,21.97
2019-05-01T16:51:05.824Z,20.40
2019-05-01T16:53:37.912Z,19.02
2019-05-01T16:56:08.914Z,18.17
2019-05-01T16:58:40.500Z,17.13
2019-05-01T17:01:17.685Z,18.57
2019-05-01T17:04:06.235Z,18.70
2019-05-01T17:07:01.995Z,20.37
2019-05-01T17:09:59.450Z,20.35
2019-05-01T17:12:35.117Z,18.27
2019-05-01T17:15:06.487Z,19.37
2019-05-01T17:17:37.683Z,19.27
2019-05-01T17:20:09.396Z,19.67
2019-05-01T17:22:40.771Z,19.37
2019-05-01T17:25:12.339Z,19.55
2019-05-01T17:27:44.463Z,18.33
2019-05-01T17:30:19.662Z,19.02
2019-05-01T17:32:50.657Z,18.90
2019-05-01T17:35:21.075Z,19.40
2019-05-01T17:37:51.275Z,20.50
2019-05-01T17:40:22.179Z,19.80
2019-05-01T17:42:53.163Z,19.53
2019-05-01T17:45:24.291Z,19.10
2019-05-01T17:47:57.888Z,19.53
2019-05-01T17:50:27.915Z,19.53
2019-05-01T17:52:58.968Z,19.50
2019-05-01T17:55:29.961Z,20.10
2019-05-01T17:58:01.050Z,19.12
2019-05-01T18:00:51.032Z,18.30
2019-05-01T18:03:40.959Z,19.37
2019-05-01T18:06:14.731Z,18.10
2019-05-01T18:08:45.742Z,18.90
2019-05-01T18:11:16.543Z,19.70
2019-05-01T18:13:47.563Z,20.33
2019-05-01T18:16:18.975Z,20.03
2019-05-01T18:18:50.067Z,19.93
2019-05-01T18:21:21.155Z,19.17
2019-05-01T18:24:05.420Z,18.93
2019-05-01T18:26:46.219Z,18.87
2019-05-01T18:29:26.179Z,18.50
2019-05-01T18:31:57.235Z,19.33
2019-05-01T18:34:28.227Z,19.40
2019-05-01T18:37:05.126Z,19.67
2019-05-01T18:39:37.940Z,19.83
2019-05-01T18:42:11.244Z,20.17
2019-05-01T18:44:42.432Z,23.20
2019-05-01T18:47:14.787Z,22.40
2019-05-01T18:49:45.779Z,20.70
2019-05-01T18:52:18.967Z,21.63
2019-05-01T18:54:51.045Z,20.40
2019-05-01T18:57:22.424Z,21.33
2019-05-01T18:59:54.135Z,20.07
2019-05-01T19:02:26.169Z,21.90
2019-05-01T19:04:57.319Z,22.07
2019-05-01T19:07:28.360Z,21.03
2019-05-01T19:09:59.563Z,20.63
2019-05-01T19:12:31.351Z,20.33
2019-05-01T19:15:05.572Z,19.37
2019-05-01T19:17:35.519Z,20.57
2019-05-01T19:20:07.191Z,20.87
2019-05-01T19:22:38.562Z,21.17
2019-05-01T19:25:10.945Z,19.97
2019-05-01T19:27:42.750Z,21.17
2019-05-01T19:30:14.889Z,21.43
2019-05-01T19:32:47.543Z,22.20
2019-05-01T19:35:18.634Z,22.77
2019-05-01T19:37:52.866Z,24.13
2019-05-01T19:40:24.953Z,21.17
2019-05-01T19:42:58.023Z,20.77
2019-05-01T19:45:28.666Z,19.73
2019-05-01T19:47:59.736Z,20.40
2019-05-01T19:50:31.099Z,20.47
2019-05-01T19:53:02.441Z,18.00
2019-05-01T19:55:33.499Z,18.40
2019-05-01T19:58:11.094Z,18.40
2019-05-01T20:01:09.962Z,19.20
2019-05-01T20:03:41.348Z,18.27
2019-05-01T20:06:12.560Z,17.57
2019-05-01T20:08:43.703Z,16.97
2019-05-01T20:11:15.091Z,16.93
2019-05-01T20:13:46.169Z,13.33
2019-05-01T20:16:18.035Z,12.80
2019-05-01T20:18:48.439Z,13.70
2019-05-01T20:21:19.451Z,12.57
2019-05-01T20:23:50.512Z,12.97
2019-05-01T20:26:21.643Z,12.83
2019-05-01T20:28:52.743Z,11.67
2019-05-01T20:31:25.217Z,11.80
2019-05-01T20:33:56.627Z,11.67
2019-05-01T20:36:27.727Z,11.20
2019-05-01T20:38:58.895Z,10.17
2019-05-01T20:41:30.001Z,10.03
2019-05-01T20:44:01.055Z,8.97
2019-05-01T20:46:32.111Z,9.50
2019-05-01T20:49:06.507Z,9.20
2019-05-01T20:51:35.766Z,9.67
2019-05-01T20:54:06.758Z,9.33
2019-05-01T20:56:45.794Z,9.43
2019-05-01T20:59:35.272Z,9.80
2019-05-01T21:02:09.376Z,9.83
2019-05-01T21:04:51.721Z,9.03
2019-05-01T21:07:44.740Z,9.10
2019-05-01T21:10:24.523Z,8.80
2019-05-01T21:12:48.735Z,9.27
2019-05-01T21:15:27.491Z,8.97
2019-05-01T21:17:57.762Z,8.73
2019-05-01T21:20:28.567Z,9.23
2019-05-01T21:23:05.975Z,9.53
2019-05-01T21:25:38.543Z,8.90
2019-05-01T21:28:10.638Z,8.83
2019-05-01T21:30:43.961Z,8.93
2019-05-01T21:33:14.542Z,8.63
2019-05-01T21:35:45.627Z,9.10
2019-05-01T21:38:19.719Z,9.63
2019-05-01T21:40:50.871Z,8.93
2019-05-01T21:43:27.781Z,9.40
2019-05-01T21:45:56.175Z,9.43
2019-05-01T21:48:27.235Z,9.70
2019-05-01T21:51:05.431Z,9.67
2019-05-01T21:53:32.810Z,9.90
2019-05-01T21:56:06.250Z,9.73
2019-05-01T21:58:37.659Z,9.73
2019-05-01T22:01:08.883Z,9.73
2019-05-01T22:03:39.947Z,10.07
2019-05-01T22:06:15.231Z,9.27
2019-05-01T22:08:42.996Z,10.23
2019-05-01T22:11:13.836Z,10.60
2019-05-01T22:13:44.903Z,10.23
2019-05-01T22:16:22.416Z,10.03
2019-05-01T22:19:25.499Z,10.20
2019-05-01T22:22:13.425Z,10.77
2019-05-01T22:24:51.655Z,10.73
2019-05-01T22:27:41.773Z,10.83
2019-05-01T22:30:31.231Z,11.10
2019-05-01T22:33:02.255Z,11.30
2019-05-01T22:35:42.631Z,10.90
2019-05-01T22:38:13.827Z,11.33
2019-05-01T22:41:09.435Z,10.97
2019-05-01T22:43:40.267Z,11.07
2019-05-01T22:46:25.807Z,11.20
2019-05-01T22:48:56.907Z,11.20
2019-05-01T22:51:27.915Z,11.57
2019-05-01T22:53:58.975Z,12.17
2019-05-01T22:56:29.992Z,12.63
2019-05-01T22:59:00.423Z,14.17
2019-05-01T23:01:32.440Z,13.90
2019-05-01T23:04:12.189Z,12.03
2019-05-01T23:06:41.841Z,12.07
2019-05-01T23:09:14.178Z,11.77
2019-05-01T23:11:45.778Z,11.73
2019-05-01T23:14:18.091Z,12.73
2019-05-01T23:17:03.428Z,12.77
2019-05-01T23:19:35.311Z,12.87
2019-05-01T23:22:07.208Z,12.53
2019-05-01T23:24:38.182Z,13.63
2019-05-01T23:27:09.550Z,13.07
2019-05-01T23:29:40.607Z,13.50
2019-05-01T23:32:11.803Z,14.03
2019-05-01T23:34:42.797Z,12.90
2019-05-01T23:37:13.803Z,14.30
2019-05-01T23:39:44.815Z,13.97
2019-05-01T23:42:15.875Z,12.70
2019-05-01T23:44:46.863Z,13.17
2019-05-01T23:47:17.855Z,14.03
2019-05-01T23:49:52.581Z,14.37
2019-05-01T23:52:21.539Z,14.43
2019-05-01T23:54:52.550Z,13.37
2019-05-01T23:57:23.475Z,14.03
2019-05-01T23:59:54.475Z,13.20
